Nearby METAR Reports

 

ENCN - Kristiansand/Kje, Norway
Distance from station: N 17km
Oppdatert: 16/02/2020 20:50
Delvis skyet
Delvis skyet
 Vind fra SV
Vind: SV 28 km/h
Temperatur: 6°C
Wind Chill: 2°C
Duggpunkt: 3°C
Fuktighet: 81%
Barometer: 980 hPa
Clouds: Delvis skyet
Visibility: 10 km
Cloud details: Delvis skyet 732 m
2020/02/16 19:50 ENCN 161950Z 22015KT 9999 SCT024 06/03 Q0980
EKSN - Sindal Airport, Denmark
Distance from station: ØSØ 145km
Oppdatert: 14/02/2020 13:50
NOT Current
Hovedsaklig skyet
Hovedsaklig skyet
 Vind fra SSV
Vind: SSV 15 km/h
Temperatur: 4°C
Wind Chill: 1°C
Duggpunkt: 3°C
Fuktighet: 93%
Barometer: 1016 hPa
Clouds: Hovedsaklig skyet
Visibility: 10 km
Cloud details: Hovedsaklig skyet 762 m
2020/02/14 12:50 EKSN 141250Z 21008KT 9999 BKN025 04/03 Q1016
 
EKYT - Alborg, Denmark
Distance from station: SØ 153km
Oppdatert: 16/02/2020 20:56
Regn, Overskyet
Regn, Overskyet
 Vind fra SV
Vind: SV 33 km/h
Temperatur: 6°C
Wind Chill: 1°C
Duggpunkt: 4°C
Fuktighet: 87%
Barometer: 985 hPa
Oversikt: Regn
Clouds: Overskyet
Visibility: 10 km
Cloud details: Few Clouds 518 m
Delvis skyet 732 m
Hovedsaklig skyet 884 m
Overskyet 1128 m
2020/02/16 19:56 EKYT 161956Z AUTO 22018KT 9999 RA FEW017/// SCT024/// BKN029/// OVC037/// 06/04 Q0985
ENSN - Skien/Geiterygge, Norway
Distance from station: NØ 153km
Oppdatert: 09/11/2015 09:50
NOT Current
Klart
Klart
 Vind fra SSV
Vind: SSV 19 km/h, Vindkast: 41 km/h
Temperatur: 7°C
Wind Chill: 4°C
Duggpunkt: 3°C
Fuktighet: 76%
Barometer: 1000 hPa
Oversikt: Klart
Visibility: greater than 10 km
2015/11/09 08:50 ENSN 090850Z 20010G22KT 150V240 CAVOK 07/03 Q1000
 
ENZV - Stavanger/Sola(A, Norway
Distance from station: NV 166km
Oppdatert: 16/02/2020 20:50
Hovedsaklig skyet
Hovedsaklig skyet
 Vind fra SSV
Vind: SSV 30 km/h, Vindkast: 57 km/h
Temperatur: 7°C
Wind Chill: 3°C
Duggpunkt: 3°C
Fuktighet: 76%
Barometer: 976 hPa
Clouds: Hovedsaklig skyet
Visibility: 10 km
Cloud details: Few Clouds 701 m
Hovedsaklig skyet 1006 m
2020/02/16 19:50 ENZV 161950Z 20016G31KT 9999 FEW023 BKN033 07/03 Q0976 TEMPO SHRA BKN014CB
ENNO - Notodden, Norway
Distance from station: NNØ 182km
Oppdatert: 14/02/2020 14:50
NOT Current
Klart
Klart
 Vind fra varies
Vind: varies 2 km/h
Temperatur: 0°C
Duggpunkt: -6°C
Fuktighet: 64%
Barometer: 1014 hPa
Oversikt: Klart
Visibility: greater than 10 km
2020/02/14 13:50 ENNO 141350Z VRB01KT CAVOK 00/M06 Q1014
 
ENTO - Torp (civ/Nor-Af, Norway
Distance from station: NØ 183km
Oppdatert: 16/02/2020 20:50
Klart
Klart
 Vind fra SV
Vind: SV 22 km/h
Temperatur: 5°C
Wind Chill: 1°C
Duggpunkt: 1°C
Fuktighet: 76%
Barometer: 979 hPa
Oversikt: Klart
Visibility: greater than 10 km
2020/02/16 19:50 ENTO 161950Z 22012KT CAVOK 05/01 Q0979 NOSIG
EKKA - Karup (dan-Afb), Denmark
Distance from station: SSØ 209km
Oppdatert: 16/02/2020 20:50
Lett regn, Hovedsaklig skyet
Lett regn, Hovedsaklig skyet
 Vind fra SV
Vind: SV 31 km/h
Temperatur: 6°C
Wind Chill: 1°C
Duggpunkt: 5°C
Fuktighet: 93%
Barometer: 987 hPa
Oversikt: Lett regn
Clouds: Hovedsaklig skyet
Visibility: 10 km
Cloud details: Hovedsaklig skyet 396 m
2020/02/16 19:50 EKKA 161950Z AUTO 23017KT 9999 -RA BKN013/// 06/05 Q0987 RERA
 
ENHD - Haugesund/Karmoy, Norway
Distance from station: NV 216km
Oppdatert: 16/02/2020 20:50
Delvis skyet
Delvis skyet
 Vind fra SSV
Vind: SSV 46 km/h
Temperatur: 7°C
Wind Chill: 2°C
Duggpunkt: 3°C
Fuktighet: 76%
Barometer: 973 hPa
Clouds: Delvis skyet
Visibility: 10 km
Cloud details: Few Clouds 853 m
Delvis skyet 1859 m
2020/02/16 19:50 ENHD 161950Z 21025KT 9999 FEW028 SCT061 07/03 Q0973
ENRY - Rygge (nor-Afb), Norway
Distance from station: NØ 216km
Oppdatert: 16/02/2020 20:50
Klart
Klart
 Vind fra SSV
Vind: SSV 24 km/h
Temperatur: 5°C
Wind Chill: 1°C
Duggpunkt: 1°C
Fuktighet: 76%
Barometer: 978 hPa
Clouds: Klart
Visibility: 10 km
2020/02/16 19:50 ENRY 161950Z AUTO 21013KT 9999NDV NCD 05/01 Q0978
 
ESGP - Goteborg/Save (a, Sweden
Distance from station: Ø 230km
Oppdatert: 02/01/2017 11:20
NOT Current
Klart
Klart
 Vind fra calm
Vind: Stille
Temperatur: -2°C
Duggpunkt: -4°C
Fuktighet: 86%
Barometer: 1012 hPa
Clouds: Klart
Visibility: 10 km
2017/01/02 10:20 ESGP 021020Z AUTO 00000KT 9999 NCD M02/M04 Q1012
EKVJ - Stauning Airport, Denmark
Distance from station: S 233km
Oppdatert: 14/02/2020 14:50
NOT Current
Hovedsaklig skyet
Hovedsaklig skyet
 Vind fra SSV
Vind: SSV 9 km/h
Temperatur: 5°C
Wind Chill: 3°C
Duggpunkt: 2°C
Fuktighet: 81%
Barometer: 1017 hPa
Clouds: Hovedsaklig skyet
Visibility: 10 km
Cloud details: Few Clouds 366 m
Hovedsaklig skyet 488 m
2020/02/14 13:50 EKVJ 141350Z 20005KT 9999 FEW012 BKN016 05/02 Q1017
 
ENSO - Stord/Soerstokke, Norway
Distance from station: NV 246km
Oppdatert: 16/02/2020 18:50
NOT Current
Nearby showers, Hovedsaklig skyet
Nearby showers, Hovedsaklig skyet
 Vind fra SSV
Vind: SSV 30 km/h, Vindkast: 52 km/h
Temperatur: 6°C
Wind Chill: 2°C
Duggpunkt: 2°C
Fuktighet: 76%
Barometer: 974 hPa
Oversikt: Nearby Showers
Clouds: Hovedsaklig skyet
Visibility: 10 km
Cloud details: Few Clouds 427 m
Delvis skyet 762 m
Hovedsaklig skyet 1676 m
2020/02/16 17:50 ENSO 161750Z 21016G28KT 9999 VCSH FEW014 SCT025 BKN055 06/02 Q0974
EKAH - Tirstrup (civ/Mi, Denmark
Distance from station: SØ 252km
Oppdatert: 16/02/2020 20:50
Lett regn, Hovedsaklig skyet
Lett regn, Hovedsaklig skyet
 Vind fra SSV
Vind: SSV 13 km/h
Temperatur: 6°C
Wind Chill: 3°C
Duggpunkt: 5°C
Fuktighet: 93%
Barometer: 988 hPa
Oversikt: Lett regn
Clouds: Hovedsaklig skyet
Visibility: 10 km
Cloud details: Hovedsaklig skyet 518 m
Hovedsaklig skyet 1189 m
2020/02/16 19:50 EKAH 161950Z AUTO 21007KT 160V270 9999NDV -RA BKN017/// BKN039/// 06/05 Q0988
 
ESGT - Trollhattan (pvt, Sweden
Distance from station: Ø 255km
Oppdatert: 16/02/2020 20:50
Overskyet
Overskyet
 Vind fra SSV
Vind: SSV 28 km/h
Temperatur: 6°C
Wind Chill: 2°C
Duggpunkt: 2°C
Fuktighet: 76%
Barometer: 983 hPa
Clouds: Overskyet
Visibility: 10 km
Cloud details: Few Clouds 1951 m
Overskyet 2621 m
2020/02/16 19:50 ESGT 161950Z AUTO 21015KT 9999 R15///// R33///// FEW064/// OVC086/// 06/02 Q0983
ESGG - Goteborg/Landvet, Sweden
Distance from station: Ø 257km
Oppdatert: 16/02/2020 20:50
Lett regn, Overskyet
Lett regn, Overskyet
 Vind fra SV
Vind: SV 28 km/h
Temperatur: 3°C
Wind Chill: -3°C
Duggpunkt: 2°C
Fuktighet: 93%
Barometer: 986 hPa
Oversikt: Lett regn
Clouds: Overskyet
Visibility: 10 km
Cloud details: Hovedsaklig skyet 427 m
Hovedsaklig skyet 762 m
Overskyet 1128 m
2020/02/16 19:50 ESGG 161950Z 22015KT 9999 -RA BKN014 BKN025 OVC037 03/02 Q0986 R21/29//95
 
EKBI - Billund Airport, Denmark
Distance from station: SSØ 269km
Oppdatert: 16/02/2020 20:50
Lett regn, Overskyet
Lett regn, Overskyet
 Vind fra SV
Vind: SV 22 km/h
Temperatur: 6°C
Wind Chill: 2°C
Duggpunkt: 5°C
Fuktighet: 93%
Barometer: 988 hPa
Oversikt: Lett regn
Clouds: Overskyet
Visibility: 4 km
Cloud details: Overskyet 274 m
2020/02/16 19:50 EKBI 161950Z AUTO 23012KT 190V250 4200 -RA OVC009/// 06/05 Q0988
EKHN - Horns Rev B Heli, Denmark
Distance from station: S 274km
Oppdatert: 09/08/2016 14:20
NOT Current
Few Clouds
Few Clouds
 Vind fra VNV
Vind: VNV 50 km/h, Vindkast: 72 km/h
Temperatur: 14°C
Duggpunkt: 10°C
Fuktighet: 77%
Barometer: 1018 hPa
Clouds: Few Clouds
Visibility: 10 km
Cloud details: Few Clouds 1158 m
Few Clouds 2438 m
2016/08/09 12:20 EKHN 091220Z AUTO 29027G39KT 270V340 9999NDV FEW038/// FEW080/// 14/10 Q1018
 
ESIB - Satenas (swe-Afb, Sweden
Distance from station: Ø 277km
Oppdatert: 16/02/2020 20:50
Hovedsaklig skyet
Hovedsaklig skyet
 Vind fra SSV
Vind: SSV 26 km/h
Temperatur: 5°C
Wind Chill: 1°C
Duggpunkt: 5°C
Fuktighet: 100%
Barometer: 983 hPa
Clouds: Hovedsaklig skyet
Visibility: 10 km
Cloud details: Few Clouds 457 m
Hovedsaklig skyet 2682 m
2020/02/16 19:50 ESIB 161950Z AUTO 20014KT 9999 FEW015/// BKN088/// 05/05 Q0983
EKHR - Horns Rev B Heli, Denmark
Distance from station: S 282km
Oppdatert: 04/10/2016 06:20
NOT Current
Klart
Klart
 Vind fra Ø
Vind: Ø 4 km/h
Temperatur: 11°C
Duggpunkt: -49°C
Fuktighet: 0%
Barometer: 1038 hPa
Clouds: Klart
Visibility: 10 km
2016/10/04 04:20 EKHR 040420Z AUTO 08002KT 9999NDV NCD 11/M49 Q1038